createdAt,value
2019-03-01T00:01:02.081Z,38.63
2019-03-01T00:03:31.609Z,35.37
2019-03-01T00:06:28.478Z,36.57
2019-03-01T00:09:57.373Z,33.03
2019-03-01T00:12:59.818Z,41.27
2019-03-01T00:16:30.859Z,41.00
2019-03-01T00:19:46.100Z,42.03
2019-03-01T00:22:46.755Z,42.57
2019-03-01T00:25:50.196Z,41.13
2019-03-01T00:28:54.797Z,39.33
2019-03-01T00:31:38.812Z,37.40
2019-03-01T00:34:49.028Z,44.30
2019-03-01T00:37:55.385Z,36.10
2019-03-01T00:40:44.048Z,34.47
2019-03-01T00:43:42.725Z,31.80
2019-03-01T00:46:12.027Z,25.80
2019-03-01T00:48:42.834Z,27.63
2019-03-01T00:51:12.036Z,21.60
2019-03-01T00:53:41.777Z,18.00
2019-03-01T00:56:11.526Z,19.47
2019-03-01T00:58:41.296Z,17.03
2019-03-01T01:01:11.256Z,18.23
2019-03-01T01:03:42.218Z,15.27
2019-03-01T01:06:12.794Z,13.77
2019-03-01T01:08:44.183Z,8.60
2019-03-01T01:11:14.410Z,9.57
2019-03-01T01:13:45.670Z,11.40
2019-03-01T01:16:15.432Z,10.73
2019-03-01T01:18:44.887Z,9.77
2019-03-01T01:21:16.441Z,12.50
2019-03-01T01:23:46.370Z,12.53
2019-03-01T01:26:17.582Z,11.53
2019-03-01T01:28:47.324Z,13.03
2019-03-01T01:31:17.381Z,15.07
2019-03-01T01:33:47.029Z,14.00
2019-03-01T01:36:18.524Z,19.67
2019-03-01T01:38:48.984Z,15.47
2019-03-01T01:41:19.382Z,15.93
2019-03-01T01:43:48.910Z,12.53
2019-03-01T01:46:21.898Z,14.83
2019-03-01T01:48:52.807Z,11.83
2019-03-01T01:51:24.668Z,12.93
2019-03-01T01:53:54.983Z,15.47
2019-03-01T01:56:29.994Z,12.97
2019-03-01T01:59:03.491Z,14.47
2019-03-01T02:01:34.009Z,12.13
2019-03-01T02:04:03.222Z,14.00
2019-03-01T02:06:32.668Z,14.70
2019-03-01T02:09:02.650Z,14.67
2019-03-01T02:11:32.711Z,13.20
2019-03-01T02:14:03.155Z,14.93
2019-03-01T02:16:32.381Z,13.13
2019-03-01T02:19:01.899Z,15.30
2019-03-01T02:21:31.436Z,19.87
2019-03-01T02:24:00.670Z,16.37
2019-03-01T02:26:31.961Z,15.10
2019-03-01T02:29:01.859Z,16.63
2019-03-01T02:31:31.364Z,15.33
2019-03-01T02:34:01.607Z,16.67
2019-03-01T02:36:31.100Z,17.70
2019-03-01T02:39:01.634Z,15.83
2019-03-01T02:41:32.150Z,18.30
2019-03-01T02:44:02.118Z,18.50
2019-03-01T02:46:31.931Z,15.67
2019-03-01T02:49:02.371Z,15.53
2019-03-01T02:51:32.122Z,14.03
2019-03-01T02:54:05.575Z,16.03
2019-03-01T02:56:35.925Z,19.47
2019-03-01T02:59:05.395Z,15.17
2019-03-01T03:01:35.067Z,16.47
2019-03-01T03:04:05.435Z,15.27
2019-03-01T03:06:41.834Z,17.63
2019-03-01T03:09:12.664Z,16.37
2019-03-01T03:11:46.598Z,16.30
2019-03-01T03:14:17.882Z,15.77
2019-03-01T03:16:47.364Z,15.63
2019-03-01T03:19:16.833Z,13.60
2019-03-01T03:21:49.445Z,12.87
2019-03-01T03:24:21.969Z,17.87
2019-03-01T03:26:53.855Z,16.60
2019-03-01T03:29:24.055Z,14.23
2019-03-01T03:31:53.235Z,10.80
2019-03-01T03:34:22.665Z,14.00
2019-03-01T03:36:52.744Z,11.17
2019-03-01T03:39:22.220Z,11.37
2019-03-01T03:41:54.325Z,13.10
2019-03-01T03:44:24.337Z,11.70
2019-03-01T03:46:58.409Z,7.73
2019-03-01T03:49:28.901Z,12.27
2019-03-01T03:52:00.243Z,9.37
2019-03-01T03:54:32.662Z,12.13
2019-03-01T03:57:02.713Z,8.93
2019-03-01T03:59:34.367Z,9.43
2019-03-01T04:02:03.893Z,12.00
2019-03-01T04:04:34.177Z,10.53
2019-03-01T04:07:03.753Z,10.27
2019-03-01T04:09:33.741Z,11.33
2019-03-01T04:12:03.200Z,10.80
2019-03-01T04:14:33.211Z,10.83
2019-03-01T04:17:03.170Z,6.73
2019-03-01T04:19:33.130Z,7.60
2019-03-01T04:22:02.326Z,10.13
2019-03-01T04:24:32.280Z,10.10
2019-03-01T04:27:01.486Z,9.00
2019-03-01T04:29:30.971Z,8.80
2019-03-01T04:32:00.886Z,9.80
2019-03-01T04:34:30.860Z,10.50
2019-03-01T04:37:01.306Z,9.43
2019-03-01T04:39:31.098Z,10.63
2019-03-01T04:42:02.375Z,7.17
2019-03-01T04:44:31.552Z,10.17
2019-03-01T04:47:01.828Z,8.73
2019-03-01T04:49:33.807Z,8.13
2019-03-01T04:52:31.964Z,12.73
2019-03-01T04:55:02.486Z,9.03
2019-03-01T04:57:34.070Z,9.50
2019-03-01T05:00:03.316Z,9.17
2019-03-01T05:02:32.800Z,9.80
2019-03-01T05:05:03.662Z,8.23
2019-03-01T05:07:33.654Z,9.87
2019-03-01T05:10:06.439Z,6.80
2019-03-01T05:12:35.616Z,8.43
2019-03-01T05:15:06.418Z,11.13
2019-03-01T05:17:35.681Z,7.07
2019-03-01T05:20:05.063Z,7.93
2019-03-01T05:22:34.789Z,8.70
2019-03-01T05:25:05.173Z,7.43
2019-03-01T05:27:37.151Z,7.20
2019-03-01T05:30:08.053Z,9.03
2019-03-01T05:32:41.285Z,6.60
2019-03-01T05:35:11.953Z,7.30
2019-03-01T05:37:41.421Z,7.47
2019-03-01T05:40:11.907Z,5.77
2019-03-01T05:42:44.420Z,8.07
2019-03-01T05:45:18.353Z,8.13
2019-03-01T05:47:47.853Z,8.17
2019-03-01T05:50:18.092Z,7.77
2019-03-01T05:52:48.027Z,7.30
2019-03-01T05:55:17.608Z,8.33
2019-03-01T05:58:22.608Z,9.73
2019-03-01T06:00:53.094Z,10.10
2019-03-01T06:04:06.073Z,11.97
2019-03-01T06:06:40.120Z,13.93
2019-03-01T06:09:32.011Z,12.50
2019-03-01T06:12:40.038Z,11.73
2019-03-01T06:15:44.852Z,13.50
2019-03-01T06:18:56.752Z,13.87
2019-03-01T06:22:21.618Z,15.90
2019-03-01T06:25:08.384Z,15.33
2019-03-01T06:28:10.376Z,16.70
2019-03-01T06:30:56.854Z,13.97
2019-03-01T06:33:51.358Z,17.97
2019-03-01T06:36:58.980Z,16.33
2019-03-01T06:40:01.578Z,16.67
2019-03-01T06:43:16.284Z,19.17
2019-03-01T06:46:25.905Z,16.30
2019-03-01T06:49:07.880Z,13.77
2019-03-01T06:51:38.627Z,19.27
2019-03-01T06:54:14.215Z,15.73
2019-03-01T06:56:44.163Z,16.63
2019-03-01T06:59:13.387Z,16.07
2019-03-01T07:01:43.766Z,21.83
2019-03-01T07:04:17.757Z,17.63
2019-03-01T07:06:47.199Z,20.17
2019-03-01T07:09:18.602Z,18.00
2019-03-01T07:11:48.998Z,21.10
2019-03-01T07:14:18.936Z,18.53
2019-03-01T07:16:49.211Z,20.73
2019-03-01T07:19:21.038Z,16.43
2019-03-01T07:21:58.087Z,18.53
2019-03-01T07:24:28.319Z,15.43
2019-03-01T07:26:57.477Z,17.23
2019-03-01T07:29:26.835Z,23.13
2019-03-01T07:31:56.001Z,20.17
2019-03-01T07:34:25.545Z,21.53
2019-03-01T07:36:56.291Z,16.57
2019-03-01T07:39:25.926Z,18.23
2019-03-01T07:41:55.978Z,15.53
2019-03-01T07:44:25.467Z,17.03
2019-03-01T07:46:54.638Z,18.63
2019-03-01T07:49:23.962Z,17.50
2019-03-01T07:51:53.719Z,17.93
2019-03-01T07:54:23.031Z,16.37
2019-03-01T07:56:52.250Z,16.70
2019-03-01T07:59:24.070Z,16.07
2019-03-01T08:01:55.911Z,14.73
2019-03-01T08:04:28.847Z,17.00
2019-03-01T08:06:57.354Z,12.93
2019-03-01T08:09:27.055Z,29.83
2019-03-01T08:11:56.242Z,239.43
2019-03-01T08:14:27.994Z,19.17
2019-03-01T08:16:57.129Z,10.43
2019-03-01T08:19:27.521Z,10.73
2019-03-01T08:21:58.938Z,14.07
2019-03-01T08:24:28.400Z,12.77
2019-03-01T08:26:57.610Z,14.03
2019-03-01T08:29:26.815Z,27.60
2019-03-01T08:31:56.732Z,14.37
2019-03-01T08:34:26.061Z,10.97
2019-03-01T08:36:57.233Z,13.60
2019-03-01T08:39:26.446Z,11.90
2019-03-01T08:42:00.180Z,9.97
2019-03-01T08:44:27.646Z,7.30
2019-03-01T08:46:58.852Z,8.80
2019-03-01T08:49:28.408Z,10.37
2019-03-01T08:51:58.568Z,8.77
2019-03-01T08:54:31.033Z,8.13
2019-03-01T08:57:04.615Z,10.10
2019-03-01T08:59:33.847Z,7.93
2019-03-01T09:02:03.044Z,6.50
2019-03-01T09:04:37.809Z,4.70
2019-03-01T09:07:03.924Z,5.83
2019-03-01T09:09:33.354Z,5.43
2019-03-01T09:12:03.484Z,4.83
2019-03-01T09:14:33.139Z,5.63
2019-03-01T09:17:02.368Z,5.97
2019-03-01T09:19:32.378Z,7.97
2019-03-01T09:22:01.556Z,7.97
2019-03-01T09:24:31.556Z,6.17
2019-03-01T09:27:00.733Z,6.87
2019-03-01T09:29:30.191Z,6.90
2019-03-01T09:31:59.385Z,6.67
2019-03-01T09:34:31.867Z,6.97
2019-03-01T09:36:59.947Z,7.73
2019-03-01T09:39:29.130Z,6.77
2019-03-01T09:42:04.282Z,7.10
2019-03-01T09:44:29.223Z,5.70
2019-03-01T09:47:01.365Z,4.80
2019-03-01T09:49:30.323Z,4.17
2019-03-01T09:52:00.539Z,5.70
2019-03-01T09:54:31.172Z,6.37
2019-03-01T09:57:00.355Z,6.20
2019-03-01T09:59:31.252Z,4.40
2019-03-01T10:02:02.226Z,6.00
2019-03-01T10:04:31.424Z,5.83
2019-03-01T10:07:00.606Z,6.90
2019-03-01T10:09:29.799Z,4.57
2019-03-01T10:11:58.988Z,6.70
2019-03-01T10:14:28.997Z,5.90
2019-03-01T10:16:58.157Z,4.10
2019-03-01T10:19:27.398Z,4.90
2019-03-01T10:21:57.357Z,5.10
2019-03-01T10:24:26.545Z,3.93
2019-03-01T10:26:55.719Z,5.70
2019-03-01T10:29:24.934Z,6.87
2019-03-01T10:31:54.436Z,4.87
2019-03-01T10:34:23.644Z,3.50
2019-03-01T10:36:53.056Z,4.17
2019-03-01T10:39:24.635Z,4.47
2019-03-01T10:41:53.819Z,3.63
2019-03-01T10:44:22.999Z,4.03
2019-03-01T10:46:53.569Z,5.90
2019-03-01T10:49:22.779Z,5.17
2019-03-01T10:51:52.812Z,3.00
2019-03-01T10:54:24.645Z,5.00
2019-03-01T10:56:54.059Z,6.23
2019-03-01T10:59:23.253Z,4.87
2019-03-01T11:01:52.436Z,4.83
2019-03-01T11:04:21.954Z,5.70
2019-03-01T11:06:51.245Z,4.63
2019-03-01T11:09:22.504Z,4.07
2019-03-01T11:11:52.793Z,4.93
2019-03-01T11:14:28.802Z,3.17
2019-03-01T11:16:58.553Z,3.63
2019-03-01T11:19:28.938Z,3.63
2019-03-01T11:22:00.358Z,5.20
2019-03-01T11:24:30.115Z,5.07
2019-03-01T11:26:59.582Z,7.30
2019-03-01T11:29:34.736Z,9.43
2019-03-01T11:32:04.198Z,11.97
2019-03-01T11:34:36.295Z,5.23
2019-03-01T11:37:07.357Z,5.77
2019-03-01T11:39:38.666Z,7.23
2019-03-01T11:42:08.598Z,5.10
2019-03-01T11:44:38.374Z,7.93
2019-03-01T11:47:08.211Z,6.70
2019-03-01T11:49:37.352Z,4.73
2019-03-01T11:52:06.919Z,6.47
2019-03-01T11:54:36.373Z,5.13
2019-03-01T11:57:06.812Z,8.83
2019-03-01T11:59:35.971Z,8.93
2019-03-01T12:02:09.197Z,9.30
2019-03-01T12:04:39.166Z,8.80
2019-03-01T12:07:09.870Z,11.10
2019-03-01T12:09:39.039Z,11.43
2019-03-01T12:12:08.283Z,12.17
2019-03-01T12:14:37.487Z,10.57
2019-03-01T12:17:06.679Z,12.83
2019-03-01T12:19:35.878Z,12.27
2019-03-01T12:22:05.796Z,14.20
2019-03-01T12:24:35.261Z,11.57
2019-03-01T12:27:05.357Z,13.87
2019-03-01T12:29:35.062Z,12.10
2019-03-01T12:32:06.386Z,13.90
2019-03-01T12:34:35.551Z,12.93
2019-03-01T12:37:05.133Z,15.53
2019-03-01T12:39:35.370Z,15.00
2019-03-01T12:42:06.941Z,15.23
2019-03-01T12:44:36.377Z,16.73
2019-03-01T12:47:07.925Z,13.97
2019-03-01T12:49:37.766Z,17.07
2019-03-01T12:52:07.244Z,18.33
2019-03-01T12:54:37.437Z,17.33
2019-03-01T12:57:08.096Z,19.53
2019-03-01T12:59:41.434Z,19.00
2019-03-01T13:02:13.462Z,22.73
2019-03-01T13:04:45.042Z,24.93
2019-03-01T13:07:14.482Z,27.67
2019-03-01T13:09:43.681Z,29.73
2019-03-01T13:12:13.647Z,30.47
2019-03-01T13:14:45.222Z,29.03
2019-03-01T13:17:14.923Z,23.70
2019-03-01T13:19:45.003Z,26.37
2019-03-01T13:22:15.215Z,23.67
2019-03-01T13:24:44.704Z,24.50
2019-03-01T13:27:17.484Z,27.53
2019-03-01T13:29:49.268Z,27.33
2019-03-01T13:32:22.854Z,30.10
2019-03-01T13:34:54.341Z,37.07
2019-03-01T13:37:28.003Z,42.13
2019-03-01T13:40:00.682Z,41.90
2019-03-01T13:42:31.064Z,36.80
2019-03-01T13:45:01.768Z,42.27
2019-03-01T13:47:34.154Z,39.17
2019-03-01T13:50:06.779Z,41.77
2019-03-01T13:52:35.033Z,47.43
2019-03-01T13:55:05.379Z,47.60
2019-03-01T13:57:37.254Z,52.43
2019-03-01T14:00:08.292Z,57.17
2019-03-01T14:02:58.886Z,57.70
2019-03-01T14:05:28.177Z,62.53
2019-03-01T14:08:08.709Z,69.00
2019-03-01T14:10:32.044Z,66.87
2019-03-01T14:13:01.884Z,73.20
2019-03-01T14:15:50.544Z,70.57
2019-03-01T14:18:20.772Z,80.70
2019-03-01T14:20:49.991Z,69.83
2019-03-01T14:23:21.354Z,72.17
2019-03-01T14:25:51.456Z,67.77
2019-03-01T14:28:21.242Z,59.53
2019-03-01T14:30:51.193Z,62.63
2019-03-01T14:33:21.132Z,60.13
2019-03-01T14:35:50.579Z,56.27
2019-03-01T14:38:26.775Z,59.40
2019-03-01T14:40:59.617Z,51.97
2019-03-01T14:43:28.856Z,51.50
2019-03-01T14:45:58.135Z,49.03
2019-03-01T14:48:28.262Z,49.53
2019-03-01T14:51:00.245Z,44.27
2019-03-01T14:53:35.936Z,47.37
2019-03-01T14:56:15.191Z,44.20
2019-03-01T14:59:02.219Z,41.63
2019-03-01T15:01:44.384Z,41.10
2019-03-01T15:04:14.399Z,41.10
2019-03-01T15:06:43.598Z,40.00
2019-03-01T15:09:16.930Z,37.00
2019-03-01T15:11:52.233Z,38.10
2019-03-01T15:14:26.169Z,40.57
2019-03-01T15:16:58.764Z,37.37
2019-03-01T15:19:29.361Z,36.30
2019-03-01T15:22:00.674Z,33.47
2019-03-01T15:24:33.173Z,29.57
2019-03-01T15:27:03.984Z,30.40
2019-03-01T15:29:34.698Z,30.07
2019-03-01T15:32:04.979Z,24.57
2019-03-01T15:34:40.839Z,25.57
2019-03-01T15:37:10.556Z,22.90
2019-03-01T15:39:40.015Z,20.30
2019-03-01T15:42:10.604Z,21.63
2019-03-01T15:44:41.677Z,21.33
2019-03-01T15:47:11.506Z,20.93
2019-03-01T15:49:40.932Z,21.80
2019-03-01T15:52:13.784Z,21.50
2019-03-01T15:54:42.488Z,22.60
2019-03-01T15:57:18.879Z,20.47
2019-03-01T15:59:48.933Z,26.03
2019-03-01T16:02:20.567Z,31.13
2019-03-01T16:04:50.024Z,29.27
2019-03-01T16:07:19.484Z,22.33
2019-03-01T16:09:50.349Z,24.27
2019-03-01T16:12:23.890Z,25.73
2019-03-01T16:14:53.458Z,28.80
2019-03-01T16:17:24.614Z,27.27
2019-03-01T16:19:56.892Z,31.40
2019-03-01T16:22:26.360Z,26.50
2019-03-01T16:24:56.142Z,27.97
2019-03-01T16:27:25.585Z,29.03
2019-03-01T16:29:54.757Z,29.03
2019-03-01T16:32:24.293Z,25.20
2019-03-01T16:34:53.703Z,29.97
2019-03-01T16:37:26.063Z,24.53
2019-03-01T16:39:56.227Z,23.90
2019-03-01T16:42:27.630Z,25.00
2019-03-01T16:44:57.397Z,25.43
2019-03-01T16:47:26.577Z,23.37
2019-03-01T16:49:58.896Z,23.23
2019-03-01T16:52:30.299Z,25.20
2019-03-01T16:55:00.314Z,21.20
2019-03-01T16:57:29.492Z,24.30
2019-03-01T16:59:58.945Z,22.20
2019-03-01T17:02:28.537Z,19.27
2019-03-01T17:04:59.761Z,25.23
2019-03-01T17:07:29.212Z,20.60
2019-03-01T17:09:58.383Z,18.67
2019-03-01T17:12:27.577Z,19.87
2019-03-01T17:14:56.757Z,21.93
2019-03-01T17:17:26.686Z,19.47
2019-03-01T17:20:02.298Z,19.80
2019-03-01T17:22:31.442Z,19.83
2019-03-01T17:25:02.036Z,16.97
2019-03-01T17:27:32.087Z,21.17
2019-03-01T17:30:02.073Z,19.50
2019-03-01T17:32:39.802Z,18.27
2019-03-01T17:35:13.217Z,17.63
2019-03-01T17:37:43.939Z,20.13
2019-03-01T17:40:15.638Z,21.43
2019-03-01T17:42:44.879Z,18.20
2019-03-01T17:45:17.379Z,17.50
2019-03-01T17:47:48.585Z,19.83
2019-03-01T17:50:21.015Z,19.40
2019-03-01T17:52:51.225Z,20.17
2019-03-01T17:55:21.234Z,23.93
2019-03-01T17:57:54.183Z,22.87
2019-03-01T18:00:31.337Z,22.47
2019-03-01T18:03:00.879Z,21.73
2019-03-01T18:05:30.616Z,24.67
2019-03-01T18:08:03.707Z,24.27
2019-03-01T18:10:32.110Z,21.33
2019-03-01T18:13:02.246Z,24.40
2019-03-01T18:15:32.811Z,24.70
2019-03-01T18:18:02.054Z,24.93
2019-03-01T18:20:34.010Z,21.30
2019-03-01T18:23:03.616Z,21.53
2019-03-01T18:25:32.913Z,20.87
2019-03-01T18:28:03.722Z,20.93
2019-03-01T18:30:33.614Z,22.63
2019-03-01T18:33:04.018Z,20.07
2019-03-01T18:35:33.676Z,21.60
2019-03-01T18:38:02.896Z,21.23
2019-03-01T18:40:32.137Z,19.93
2019-03-01T18:43:01.666Z,19.57
2019-03-01T18:45:31.120Z,20.97
2019-03-01T18:48:00.310Z,19.80
2019-03-01T18:50:32.312Z,21.00
2019-03-01T18:53:03.580Z,20.53
2019-03-01T18:55:32.832Z,18.07
2019-03-01T18:58:02.651Z,18.03
2019-03-01T19:00:36.952Z,15.60
2019-03-01T19:03:06.419Z,17.53
2019-03-01T19:05:36.638Z,17.50
2019-03-01T19:08:07.567Z,18.60
2019-03-01T19:10:36.781Z,18.60
2019-03-01T19:13:05.980Z,17.30
2019-03-01T19:15:35.267Z,21.93
2019-03-01T19:18:04.537Z,18.23
2019-03-01T19:20:33.887Z,19.80
2019-03-01T19:23:03.421Z,19.10
2019-03-01T19:25:32.599Z,20.77
2019-03-01T19:28:03.078Z,20.60
2019-03-01T19:30:32.601Z,21.37
2019-03-01T19:33:02.214Z,18.00
2019-03-01T19:35:32.299Z,19.00
2019-03-01T19:38:02.872Z,20.23
2019-03-01T19:40:33.294Z,18.90
2019-03-01T19:43:02.481Z,18.60
2019-03-01T19:45:31.691Z,19.57
2019-03-01T19:48:03.243Z,20.27
2019-03-01T19:50:32.052Z,17.50
2019-03-01T19:53:01.282Z,18.23
2019-03-01T19:55:30.620Z,20.73
2019-03-01T19:58:00.628Z,21.73
2019-03-01T20:00:29.890Z,27.53
2019-03-01T20:03:01.303Z,25.70
2019-03-01T20:05:31.992Z,27.37
2019-03-01T20:08:01.410Z,28.97
2019-03-01T20:10:31.558Z,33.90
2019-03-01T20:13:09.448Z,32.47
2019-03-01T20:15:39.356Z,33.47
2019-03-01T20:18:09.738Z,35.47
2019-03-01T20:20:40.917Z,35.33
2019-03-01T20:23:11.348Z,33.70
2019-03-01T20:25:40.604Z,36.57
2019-03-01T20:28:11.605Z,34.60
2019-03-01T20:30:41.027Z,38.03
2019-03-01T20:33:10.762Z,33.47
2019-03-01T20:35:41.878Z,38.23
2019-03-01T20:38:11.143Z,40.23
2019-03-01T20:40:40.336Z,39.87
2019-03-01T20:43:10.625Z,37.70
2019-03-01T20:45:39.825Z,38.20
2019-03-01T20:48:09.041Z,38.53
2019-03-01T20:50:38.453Z,40.30
2019-03-01T20:53:10.057Z,39.37
2019-03-01T20:55:38.755Z,41.23
2019-03-01T20:58:08.032Z,39.20
2019-03-01T21:00:37.593Z,37.47
2019-03-01T21:03:07.079Z,40.77
2019-03-01T21:05:37.304Z,30.93
2019-03-01T21:08:06.722Z,34.83
2019-03-01T21:10:36.222Z,33.33
2019-03-01T21:13:08.705Z,34.90
2019-03-01T21:15:38.682Z,34.70
2019-03-01T21:18:08.296Z,35.97
2019-03-01T21:20:37.494Z,32.43
2019-03-01T21:23:07.800Z,31.53
2019-03-01T21:25:39.711Z,29.63
2019-03-01T21:28:08.493Z,34.27
2019-03-01T21:30:37.690Z,32.93
2019-03-01T21:33:06.857Z,32.60
2019-03-01T21:35:37.171Z,35.07
2019-03-01T21:38:06.555Z,33.57
2019-03-01T21:40:37.020Z,31.27
2019-03-01T21:43:06.575Z,33.67
2019-03-01T21:45:35.947Z,31.73
2019-03-01T21:48:05.686Z,31.87
2019-03-01T21:50:34.962Z,28.83
2019-03-01T21:53:05.599Z,31.57
2019-03-01T21:55:35.703Z,28.90
2019-03-01T21:58:07.569Z,29.97
2019-03-01T22:00:39.651Z,30.30
2019-03-01T22:03:09.188Z,30.47
2019-03-01T22:05:41.194Z,28.47
2019-03-01T22:08:12.992Z,26.47
2019-03-01T22:10:44.943Z,27.37
2019-03-01T22:13:14.116Z,24.17
2019-03-01T22:15:45.166Z,26.03
2019-03-01T22:18:14.407Z,30.43
2019-03-01T22:20:44.811Z,29.43
2019-03-01T22:23:15.788Z,25.27
2019-03-01T22:25:45.690Z,31.87
2019-03-01T22:28:14.856Z,30.10
2019-03-01T22:30:45.340Z,27.70
2019-03-01T22:33:17.389Z,34.23
2019-03-01T22:35:45.786Z,34.00
2019-03-01T22:38:16.149Z,30.10
2019-03-01T22:40:48.298Z,29.43
2019-03-01T22:43:17.806Z,30.40
2019-03-01T22:45:48.849Z,30.60
2019-03-01T22:48:17.964Z,29.80
2019-03-01T22:50:48.230Z,33.40
2019-03-01T22:53:18.225Z,33.90
2019-03-01T22:55:47.784Z,30.83
2019-03-01T22:58:16.993Z,32.40
2019-03-01T23:01:23.073Z,32.57
2019-03-01T23:04:00.270Z,37.27
2019-03-01T23:06:29.965Z,35.90
2019-03-01T23:09:00.860Z,33.03
2019-03-01T23:11:32.409Z,34.03
2019-03-01T23:14:02.287Z,34.07
2019-03-01T23:16:31.450Z,34.00
2019-03-01T23:19:00.656Z,35.47
2019-03-01T23:21:32.690Z,36.17
2019-03-01T23:24:01.104Z,35.57
2019-03-01T23:26:31.368Z,37.10
2019-03-01T23:29:00.585Z,42.53
2019-03-01T23:31:29.775Z,38.47
2019-03-01T23:33:59.802Z,35.07
2019-03-01T23:36:29.740Z,33.57
2019-03-01T23:38:59.529Z,40.70
2019-03-01T23:41:30.075Z,35.77
2019-03-01T23:44:02.916Z,37.10
2019-03-01T23:46:30.979Z,34.27
2019-03-01T23:49:06.279Z,37.97
2019-03-01T23:51:31.051Z,34.27
2019-03-01T23:54:00.240Z,34.57
2019-03-01T23:56:30.567Z,36.83
2019-03-01T23:59:00.114Z,37.77
